Ansonia, CT

8:55 PM EDT on September 15, 2014 (GMT -0400)
Hilltop by Sunnyside School | Change Station
CLOSE
Current Station
Personal Weather Station
Location: Shelton, CT
Elevation: 43 ft
Nearby Weather Stations

Elev 43 ft 41.32 °N, 73.09 °W | Updated 37 seconds ago

Partly Cloudy
Partly Cloudy
56.0 °F
Feels Like 56.0 °F
N
0.0
Wind Variable Wind from NNW
Gusts 1.0 mph

Today
High -- | Low -- °F
--% Chance of Precip.
Yesterday
High -- | Low -- °F
Precip. -- in
6:32 AM 7:01 PM
Waning Gibbous, 50% visible
Pressure 30.13 in
Visibility 10.0 miles
Clouds Scattered Clouds 15000 ft
Mostly Cloudy 25000 ft
Dew Point 51 °F
Humidity 84%
Rainfall 0.00 in
Snow Depth Not available.
UV 0 out of 12
Pollen 2.90 out of 12
Ozone Good
PM2.5 Good
Flu Activity Not available.
METAR KOXC 152350Z 00000KT 10SM SCT150 BKN250 12/06 A3013

More Conditions Fewer Conditions

Pressure 30.13 in
Visibility 10.0 miles
Clouds Scattered Clouds 15000 ft
Mostly Cloudy 25000 ft
Dew Point 51 °F
Humidity 84%
Rainfall 0.00 in
Snow Depth Not available.
UV 0 out of 12
Pollen 2.90 out of 12
Ozone Good
PM2.5 Good
Flu Activity Not available.
METAR KOXC 152350Z 00000KT 10SM SCT150 BKN250 12/06 A3013

More Conditions Fewer Conditions

10-Day Weather Forecast

Almanac

Astronomy

Sep. 15, 2014 Rise Set
Actual Time 6:32 AM EDT 7:01 PM EDT
Civil Twilight 6:04 AM EDT 7:29 PM EDT
Nautical Twilight 5:32 AM EDT 8:01 PM EDT
Astronomical Twilight 4:58 AM EDT 8:35 PM EDT
Moon 11:38 PM EDT (9/15) 1:34 PM EDT (9/15)
Length of Visible Light 13h 24m
Length of Day
12h 28m
Tomorrow will be 2m 43s shorter.
Waning Gibbous, 50% of the Moon is Illuminated
Today
Waning Gibbous
Sep 15
Last Quarter
Sep 24
New
Oct 1
First Quarter
Oct 8
Full

Today's Extremes

State Highs State Lows

Community

WunderPhotos

Upload Photos

1,753,630 photos uploaded!

Nearby

Air Quality

  Air Quality AQ Index Pollutant
Yesterday Good
OZONE
Yesterday Good
PM2.5
Current Good
OZONE
Current Good
PM2.5
Tuesday Good
OZONE
Tuesday Good
PM2.5

Snow Depth

Station Depth Elevation
No new snow has been reported.

Earthquake Activity

City Distance Mag. Time & Date
No recent earthquake activity has been reported nearby.
Minimum magnitude displayed is 2.5.

Coastal Water Temperatures

Place Temperature
Bridgeport, CT 70.0 °F

Nearby Weather Stations